Sims, Kansas
Current Conditions -  °F | °C
As of 10:53 PM on Wednesday 22 Oct 2014 (Local Time) from KJLN Reporting Station
Clear Clear  
Wind Chill: 60°   Ceiling: Unl
Heat Index: 60°   Visibility: 10mi
Dew Point: 51°   Wind: 8mph
Humidity: 72%   Direction: 140°SE
Pressure: 30.15"   Gusts: NA
Location:  37.0595°N, 94.7764°W
Report Text: KJLN 230353Z AUTO 14007KT 10SM CLR 16/11 A3015 RMK AO2 SLP203 T01560106
Loading
Personal Weather Stations






























Interactive Weather Map
Tropical Storm Tracking
New forecast layout! Learn more

10-Day Weather Forecast

Advertisements
Track Severe Weather on mobile